sensor_id;sensor_type;location;lat;lon;timestamp;pressure;altitude;pressure_sealevel;temperature;humidity
50226;BME280;36113;50.742;6.432;2024-03-08T00:01:35;98831.81;;;0.90;80.79
50226;BME280;36113;50.742;6.432;2024-03-08T00:04:00;98813.91;;;0.77;80.82
50226;BME280;36113;50.742;6.432;2024-03-08T00:06:25;98822.56;;;0.79;81.30
50226;BME280;36113;50.742;6.432;2024-03-08T00:08:51;98826.28;;;0.78;81.35
50226;BME280;36113;50.742;6.432;2024-03-08T00:11:16;98826.28;;;0.72;81.74
50226;BME280;36113;50.742;6.432;2024-03-08T00:13:41;98814.78;;;0.58;82.07
50226;BME280;36113;50.742;6.432;2024-03-08T00:16:07;98816.84;;;0.56;81.99
50226;BME280;36113;50.742;6.432;2024-03-08T00:18:34;98811.47;;;0.56;81.96
50226;BME280;36113;50.742;6.432;2024-03-08T00:20:59;98810.63;;;0.49;82.20
50226;BME280;36113;50.742;6.432;2024-03-08T00:23:25;98782.28;;;0.28;82.17
50226;BME280;36113;50.742;6.432;2024-03-08T00:25:50;98806.75;;;0.45;82.25
50226;BME280;36113;50.742;6.432;2024-03-08T00:28:16;98809.00;;;0.41;82.04
50226;BME280;36113;50.742;6.432;2024-03-08T00:30:43;98807.16;;;0.41;82.36
50226;BME280;36113;50.742;6.432;2024-03-08T00:33:10;98801.81;;;0.41;81.95
50226;BME280;36113;50.742;6.432;2024-03-08T00:35:35;98810.88;;;0.47;82.26
50226;BME280;36113;50.742;6.432;2024-03-08T00:38:01;98793.78;;;0.35;82.50
50226;BME280;36113;50.742;6.432;2024-03-08T00:40:26;98798.13;;;0.36;82.26
50226;BME280;36113;50.742;6.432;2024-03-08T00:42:51;98758.00;;;0.03;82.76
50226;BME280;36113;50.742;6.432;2024-03-08T00:45:18;98808.38;;;0.32;82.63
50226;BME280;36113;50.742;6.432;2024-03-08T00:47:43;98797.88;;;0.24;82.67
50226;BME280;36113;50.742;6.432;2024-03-08T00:50:09;98782.25;;;0.14;82.66
50226;BME280;36113;50.742;6.432;2024-03-08T00:52:35;98781.22;;;0.15;82.71
50226;BME280;36113;50.742;6.432;2024-03-08T00:55:00;98775.47;;;0.12;82.79
50226;BME280;36113;50.742;6.432;2024-03-08T00:57:26;98787.41;;;0.16;83.17
50226;BME280;36113;50.742;6.432;2024-03-08T00:59:51;98788.22;;;0.10;83.38
50226;BME280;36113;50.742;6.432;2024-03-08T01:02:17;98778.97;;;0.06;83.35
50226;BME280;36113;50.742;6.432;2024-03-08T01:04:44;98788.44;;;0.15;83.05
50226;BME280;36113;50.742;6.432;2024-03-08T01:07:10;98764.97;;;0.04;83.33
50226;BME280;36113;50.742;6.432;2024-03-08T01:09:35;98771.78;;;0.19;83.16
50226;BME280;36113;50.742;6.432;2024-03-08T01:12:01;98760.47;;;0.11;83.09
50226;BME280;36113;50.742;6.432;2024-03-08T01:14:26;98754.91;;;0.12;83.17
50226;BME280;36113;50.742;6.432;2024-03-08T01:16:52;98765.00;;;0.30;82.76
50226;BME280;36113;50.742;6.432;2024-03-08T01:19:17;98766.22;;;0.34;82.64
50226;BME280;36113;50.742;6.432;2024-03-08T01:21:43;98764.78;;;0.32;83.04
50226;BME280;36113;50.742;6.432;2024-03-08T01:24:09;98768.28;;;0.32;82.71
50226;BME280;36113;50.742;6.432;2024-03-08T01:26:34;98762.50;;;0.22;82.88
50226;BME280;36113;50.742;6.432;2024-03-08T01:29:00;98759.03;;;0.28;83.13
50226;BME280;36113;50.742;6.432;2024-03-08T01:31:26;98758.81;;;0.30;82.96
50226;BME280;36113;50.742;6.432;2024-03-08T01:33:54;98742.59;;;0.11;83.33
50226;BME280;36113;50.742;6.432;2024-03-08T01:36:19;98716.06;;;-0.10;83.51
50226;BME280;36113;50.742;6.432;2024-03-08T01:38:44;98730.44;;;0.02;83.52
50226;BME280;36113;50.742;6.432;2024-03-08T01:41:10;98747.53;;;0.21;83.78
50226;BME280;36113;50.742;6.432;2024-03-08T01:43:35;98734.34;;;0.13;83.91
50226;BME280;36113;50.742;6.432;2024-03-08T01:46:01;98733.53;;;0.06;83.84
50226;BME280;36113;50.742;6.432;2024-03-08T01:48:28;98707.22;;;-0.17;84.10
50226;BME280;36113;50.742;6.432;2024-03-08T01:50:55;98749.38;;;0.01;84.46
50226;BME280;36113;50.742;6.432;2024-03-08T01:53:21;98735.59;;;-0.10;84.78
50226;BME280;36113;50.742;6.432;2024-03-08T01:55:48;98740.13;;;-0.04;84.42
50226;BME280;36113;50.742;6.432;2024-03-08T01:58:14;98724.06;;;-0.10;84.40
50226;BME280;36113;50.742;6.432;2024-03-08T02:00:48;98729.00;;;-0.14;84.33
50226;BME280;36113;50.742;6.432;2024-03-08T02:03:15;98718.72;;;-0.17;84.29
50226;BME280;36113;50.742;6.432;2024-03-08T02:05:41;98724.06;;;-0.17;84.81
50226;BME280;36113;50.742;6.432;2024-03-08T02:08:07;98718.53;;;-0.22;84.96
50226;BME280;36113;50.742;6.432;2024-03-08T02:10:33;98700.41;;;-0.40;85.28
50226;BME280;36113;50.742;6.432;2024-03-08T02:13:01;98701.88;;;-0.31;84.85
50226;BME280;36113;50.742;6.432;2024-03-08T02:15:26;98697.75;;;-0.27;84.56
50226;BME280;36113;50.742;6.432;2024-03-08T02:17:51;98686.47;;;-0.35;84.53
50226;BME280;36113;50.742;6.432;2024-03-08T02:20:18;98715.63;;;-0.21;84.75
50226;BME280;36113;50.742;6.432;2024-03-08T02:22:45;98708.44;;;-0.27;84.67
50226;BME280;36113;50.742;6.432;2024-03-08T02:25:11;98701.47;;;-0.21;84.45
50226;BME280;36113;50.742;6.432;2024-03-08T02:27:36;98688.28;;;-0.36;84.60
50226;BME280;36113;50.742;6.432;2024-03-08T02:30:02;98707.41;;;-0.32;84.96
50226;BME280;36113;50.742;6.432;2024-03-08T02:32:27;98697.34;;;-0.30;84.99
50226;BME280;36113;50.742;6.432;2024-03-08T02:34:56;98691.59;;;-0.34;84.95
50226;BME280;36113;50.742;6.432;2024-03-08T02:37:25;98683.78;;;-0.35;84.53
50226;BME280;36113;50.742;6.432;2024-03-08T02:39:50;98680.06;;;-0.41;84.79
50226;BME280;36113;50.742;6.432;2024-03-08T02:42:15;98680.28;;;-0.43;85.00
50226;BME280;36113;50.742;6.432;2024-03-08T02:44:43;98689.94;;;-0.42;85.36
50226;BME280;36113;50.742;6.432;2024-03-08T02:47:12;98676.78;;;-0.50;85.32
50226;BME280;36113;50.742;6.432;2024-03-08T02:49:37;98685.59;;;-0.43;85.23
50226;BME280;36113;50.742;6.432;2024-03-08T02:52:04;98681.69;;;-0.53;85.44
50226;BME280;36113;50.742;6.432;2024-03-08T02:54:29;98690.13;;;-0.56;85.71
50226;BME280;36113;50.742;6.432;2024-03-08T02:56:55;98682.31;;;-0.58;85.79
50226;BME280;36113;50.742;6.432;2024-03-08T02:59:20;98675.13;;;-0.64;85.97
50226;BME280;36113;50.742;6.432;2024-03-08T03:01:45;98686.81;;;-0.58;85.73
50226;BME280;36113;50.742;6.432;2024-03-08T03:04:11;98683.53;;;-0.60;86.13
50226;BME280;36113;50.742;6.432;2024-03-08T03:06:36;98666.91;;;-0.56;85.51
50226;BME280;36113;50.742;6.432;2024-03-08T03:09:01;98673.47;;;-0.52;85.46
50226;BME280;36113;50.742;6.432;2024-03-08T03:11:27;98674.72;;;-0.54;85.49
50226;BME280;36113;50.742;6.432;2024-03-08T03:13:52;98675.72;;;-0.62;85.83
50226;BME280;36113;50.742;6.432;2024-03-08T03:16:19;98653.72;;;-0.84;86.27
50226;BME280;36113;50.742;6.432;2024-03-08T03:18:48;98671.81;;;-0.73;86.50
50226;BME280;36113;50.742;6.432;2024-03-08T03:21:14;98651.25;;;-0.86;86.53
50226;BME280;36113;50.742;6.432;2024-03-08T03:23:40;98670.31;;;-0.89;86.90
50226;BME280;36113;50.742;6.432;2024-03-08T03:26:06;98648.75;;;-0.94;87.08
50226;BME280;36113;50.742;6.432;2024-03-08T03:28:37;98646.88;;;-1.00;86.95
50226;BME280;36113;50.742;6.432;2024-03-08T03:31:04;98657.38;;;-0.92;87.26
50226;BME280;36113;50.742;6.432;2024-03-08T03:33:29;98657.19;;;-0.90;86.96
50226;BME280;36113;50.742;6.432;2024-03-08T03:35:55;98655.75;;;-0.93;87.07
50226;BME280;36113;50.742;6.432;2024-03-08T03:38:20;98660.06;;;-0.92;87.11
50226;BME280;36113;50.742;6.432;2024-03-08T03:40:48;98656.13;;;-0.96;87.17
50226;BME280;36113;50.742;6.432;2024-03-08T03:43:17;98646.47;;;-1.10;87.42
50226;BME280;36113;50.742;6.432;2024-03-08T03:45:42;98618.69;;;-1.29;87.78
50226;BME280;36113;50.742;6.432;2024-03-08T03:48:08;98640.50;;;-1.12;87.70
50226;BME280;36113;50.742;6.432;2024-03-08T03:50:36;98617.91;;;-1.16;87.69
50226;BME280;36113;50.742;6.432;2024-03-08T03:53:02;98644.22;;;-1.00;87.45
50226;BME280;36113;50.742;6.432;2024-03-08T03:55:28;98641.16;;;-1.03;87.50
50226;BME280;36113;50.742;6.432;2024-03-08T03:57:53;98621.22;;;-1.14;87.45
50226;BME280;36113;50.742;6.432;2024-03-08T04:00:19;98641.78;;;-1.01;87.38
50226;BME280;36113;50.742;6.432;2024-03-08T04:02:44;98631.91;;;-1.08;87.66
50226;BME280;36113;50.742;6.432;2024-03-08T04:05:10;98636.00;;;-1.05;87.32
50226;BME280;36113;50.742;6.432;2024-03-08T04:07:37;98638.25;;;-1.09;87.76
50226;BME280;36113;50.742;6.432;2024-03-08T04:10:03;98636.19;;;-1.07;87.74
50226;BME280;36113;50.742;6.432;2024-03-08T04:12:28;98636.63;;;-1.03;87.46
50226;BME280;36113;50.742;6.432;2024-03-08T04:14:55;98619.78;;;-1.10;87.37
50226;BME280;36113;50.742;6.432;2024-03-08T04:17:20;98622.84;;;-1.07;87.42
50226;BME280;36113;50.742;6.432;2024-03-08T04:19:46;98618.53;;;-1.14;87.69
50226;BME280;36113;50.742;6.432;2024-03-08T04:22:13;98629.22;;;-1.08;87.52
50226;BME280;36113;50.742;6.432;2024-03-08T04:24:38;98626.38;;;-1.06;87.52
50226;BME280;36113;50.742;6.432;2024-03-08T04:27:05;98623.47;;;-1.05;87.74
50226;BME280;36113;50.742;6.432;2024-03-08T04:29:31;98621.03;;;-1.06;87.46
50226;BME280;36113;50.742;6.432;2024-03-08T04:31:57;98605.41;;;-1.16;87.74
50226;BME280;36113;50.742;6.432;2024-03-08T04:34:23;98603.53;;;-1.15;87.65
50226;BME280;36113;50.742;6.432;2024-03-08T04:36:49;98603.97;;;-1.18;87.90
50226;BME280;36113;50.742;6.432;2024-03-08T04:39:14;98615.28;;;-1.10;87.81
50226;BME280;36113;50.742;6.432;2024-03-08T04:41:41;98616.50;;;-1.06;87.66
50226;BME280;36113;50.742;6.432;2024-03-08T04:44:09;98623.72;;;-0.99;87.70
50226;BME280;36113;50.742;6.432;2024-03-08T04:46:34;98589.63;;;-1.11;87.38
50226;BME280;36113;50.742;6.432;2024-03-08T04:49:00;98592.72;;;-1.00;87.38
50226;BME280;36113;50.742;6.432;2024-03-08T04:51:26;98614.06;;;-0.94;87.71
50226;BME280;36113;50.742;6.432;2024-03-08T04:53:51;98605.25;;;-0.94;87.90
50226;BME280;36113;50.742;6.432;2024-03-08T04:56:16;98560.47;;;-1.19;87.97
50226;BME280;36113;50.742;6.432;2024-03-08T04:58:44;98596.22;;;-0.93;87.85
50226;BME280;36113;50.742;6.432;2024-03-08T05:01:12;98593.53;;;-1.00;87.86
50226;BME280;36113;50.742;6.432;2024-03-08T05:03:37;98589.84;;;-0.99;87.86
50226;BME280;36113;50.742;6.432;2024-03-08T05:06:03;98567.03;;;-1.15;88.05
50226;BME280;36113;50.742;6.432;2024-03-08T05:08:29;98578.13;;;-1.05;87.84
50226;BME280;36113;50.742;6.432;2024-03-08T05:10:54;98579.34;;;-1.07;88.22
50226;BME280;36113;50.742;6.432;2024-03-08T05:13:20;98583.91;;;-1.01;88.04
50226;BME280;36113;50.742;6.432;2024-03-08T05:15:48;98583.06;;;-1.08;88.10
50226;BME280;36113;50.742;6.432;2024-03-08T05:18:14;98551.84;;;-1.28;88.24
50226;BME280;36113;50.742;6.432;2024-03-08T05:20:40;98559.63;;;-1.26;88.35
50226;BME280;36113;50.742;6.432;2024-03-08T05:23:06;98572.16;;;-1.20;88.24
50226;BME280;36113;50.742;6.432;2024-03-08T05:25:32;98551.22;;;-1.30;88.33
50226;BME280;36113;50.742;6.432;2024-03-08T05:27:57;98574.00;;;-1.20;88.44
50226;BME280;36113;50.742;6.432;2024-03-08T05:30:23;98568.84;;;-1.22;88.55
50226;BME280;36113;50.742;6.432;2024-03-08T05:32:48;98566.19;;;-1.22;88.26
50226;BME280;36113;50.742;6.432;2024-03-08T05:35:13;98577.06;;;-1.23;88.37
50226;BME280;36113;50.742;6.432;2024-03-08T05:37:41;98575.41;;;-1.25;88.78
50226;BME280;36113;50.742;6.432;2024-03-08T05:40:07;98568.84;;;-1.29;88.71
50226;BME280;36113;50.742;6.432;2024-03-08T05:42:37;98546.47;;;-1.41;88.70
50226;BME280;36113;50.742;6.432;2024-03-08T05:45:04;98551.78;;;-1.41;88.83
50226;BME280;36113;50.742;6.432;2024-03-08T05:47:31;98565.34;;;-1.36;89.19
50226;BME280;36113;50.742;6.432;2024-03-08T05:49:58;98571.47;;;-1.35;89.08
50226;BME280;36113;50.742;6.432;2024-03-08T05:52:23;98558.53;;;-1.45;89.25
50226;BME280;36113;50.742;6.432;2024-03-08T05:54:48;98554.41;;;-1.54;89.71
50226;BME280;36113;50.742;6.432;2024-03-08T05:57:13;98557.91;;;-1.54;90.20
50226;BME280;36113;50.742;6.432;2024-03-08T05:59:39;98521.53;;;-1.81;90.36
50226;BME280;36113;50.742;6.432;2024-03-08T06:02:05;98557.47;;;-1.57;90.35
50226;BME280;36113;50.742;6.432;2024-03-08T06:04:30;98565.28;;;-1.56;90.34
50226;BME280;36113;50.742;6.432;2024-03-08T06:06:56;98545.16;;;-1.58;89.96
50226;BME280;36113;50.742;6.432;2024-03-08T06:09:23;98559.56;;;-1.53;90.17
50226;BME280;36113;50.742;6.432;2024-03-08T06:11:49;98545.97;;;-1.64;90.50
50226;BME280;36113;50.742;6.432;2024-03-08T06:14:14;98548.25;;;-1.61;90.66
50226;BME280;36113;50.742;6.432;2024-03-08T06:16:44;98550.34;;;-1.50;90.08
50226;BME280;36113;50.742;6.432;2024-03-08T06:19:09;98561.66;;;-1.41;90.03
50226;BME280;36113;50.742;6.432;2024-03-08T06:21:35;98554.06;;;-1.31;89.66
50226;BME280;36113;50.742;6.432;2024-03-08T06:24:00;98549.78;;;-1.32;89.35
50226;BME280;36113;50.742;6.432;2024-03-08T06:26:26;98551.00;;;-1.28;89.67
50226;BME280;36113;50.742;6.432;2024-03-08T06:28:53;98546.91;;;-1.24;89.15
50226;BME280;36113;50.742;6.432;2024-03-08T06:31:19;98552.88;;;-1.15;89.33
50226;BME280;36113;50.742;6.432;2024-03-08T06:33:45;98551.25;;;-1.10;89.03
50226;BME280;36113;50.742;6.432;2024-03-08T06:36:10;98534.81;;;-1.07;88.77
50226;BME280;36113;50.742;6.432;2024-03-08T06:38:37;98542.66;;;-0.92;88.47
50226;BME280;36113;50.742;6.432;2024-03-08T06:41:07;98535.06;;;-0.95;88.65
50226;BME280;36113;50.742;6.432;2024-03-08T06:43:32;98538.97;;;-0.84;88.18
50226;BME280;36113;50.742;6.432;2024-03-08T06:45:59;98543.91;;;-0.74;88.09
50226;BME280;36113;50.742;6.432;2024-03-08T06:48:24;98534.84;;;-0.73;88.03
50226;BME280;36113;50.742;6.432;2024-03-08T06:50:50;98525.03;;;-0.73;87.58
50226;BME280;36113;50.742;6.432;2024-03-08T06:53:15;98533.84;;;-0.59;87.27
50226;BME280;36113;50.742;6.432;2024-03-08T06:55:44;98535.06;;;-0.55;87.34
50226;BME280;36113;50.742;6.432;2024-03-08T06:58:09;98535.47;;;-0.51;86.92
50226;BME280;36113;50.742;6.432;2024-03-08T07:00:36;98539.59;;;-0.42;86.73
50226;BME280;36113;50.742;6.432;2024-03-08T07:03:01;98532.16;;;-0.33;86.63
50226;BME280;36113;50.742;6.432;2024-03-08T07:05:28;98522.91;;;-0.31;86.16
50226;BME280;36113;50.742;6.432;2024-03-08T07:07:53;98521.25;;;-0.25;86.17
50226;BME280;36113;50.742;6.432;2024-03-08T07:10:20;98533.34;;;-0.09;85.95
50226;BME280;36113;50.742;6.432;2024-03-08T07:12:46;98533.72;;;0.01;85.30
50226;BME280;36113;50.742;6.432;2024-03-08T07:15:12;98517.50;;;0.03;85.04
50226;BME280;36113;50.742;6.432;2024-03-08T07:17:41;98512.75;;;0.05;84.62
50226;BME280;36113;50.742;6.432;2024-03-08T07:20:10;98509.44;;;0.16;84.52
50226;BME280;36113;50.742;6.432;2024-03-08T07:22:38;98513.06;;;0.28;84.34
50226;BME280;36113;50.742;6.432;2024-03-08T07:25:05;98519.59;;;0.39;84.13
50226;BME280;36113;50.742;6.432;2024-03-08T07:27:53;98513.22;;;0.47;84.03
50226;BME280;36113;50.742;6.432;2024-03-08T07:30:23;98514.16;;;0.59;83.67
50226;BME280;36113;50.742;6.432;2024-03-08T07:33:07;98508.00;;;0.58;83.28
50226;BME280;36113;50.742;6.432;2024-03-08T07:35:33;98511.84;;;0.69;83.38
50226;BME280;36113;50.742;6.432;2024-03-08T07:38:05;98495.50;;;0.77;83.10
50226;BME280;36113;50.742;6.432;2024-03-08T07:40:31;98502.22;;;0.93;82.83
50226;BME280;36113;50.742;6.432;2024-03-08T07:42:57;98484.91;;;0.96;82.18
50226;BME280;36113;50.742;6.432;2024-03-08T07:45:23;98494.91;;;1.07;81.81
50226;BME280;36113;50.742;6.432;2024-03-08T07:47:49;98462.78;;;1.07;81.11
50226;BME280;36113;50.742;6.432;2024-03-08T07:50:16;98484.84;;;1.28;80.96
50226;BME280;36113;50.742;6.432;2024-03-08T07:52:41;98456.66;;;1.25;80.50
50226;BME280;36113;50.742;6.432;2024-03-08T07:55:07;98472.47;;;1.52;80.15
50226;BME280;36113;50.742;6.432;2024-03-08T07:57:33;98476.06;;;1.64;79.49
50226;BME280;36113;50.742;6.432;2024-03-08T07:59:58;98440.59;;;1.43;78.67
50226;BME280;36113;50.742;6.432;2024-03-08T08:02:23;98436.53;;;1.41;78.11
50226;BME280;36113;50.742;6.432;2024-03-08T08:04:49;98471.59;;;1.76;78.52
50226;BME280;36113;50.742;6.432;2024-03-08T08:07:14;98467.75;;;1.91;78.47
50226;BME280;36113;50.742;6.432;2024-03-08T08:09:40;98468.41;;;2.04;78.08
50226;BME280;36113;50.742;6.432;2024-03-08T08:12:08;98461.59;;;2.20;77.99
50226;BME280;36113;50.742;6.432;2024-03-08T08:14:35;98465.53;;;2.36;77.71
50226;BME280;36113;50.742;6.432;2024-03-08T08:17:01;98452.88;;;2.55;77.41
50226;BME280;36113;50.742;6.432;2024-03-08T08:19:29;98444.47;;;2.52;76.69
50226;BME280;36113;50.742;6.432;2024-03-08T08:21:54;98449.41;;;2.66;76.40
50226;BME280;36113;50.742;6.432;2024-03-08T08:24:19;98442.44;;;2.77;76.35
50226;BME280;36113;50.742;6.432;2024-03-08T08:26:46;98450.31;;;2.90;75.85
50226;BME280;36113;50.742;6.432;2024-03-08T08:29:12;98443.75;;;2.98;75.52
50226;BME280;36113;50.742;6.432;2024-03-08T08:31:37;98403.00;;;2.89;75.14
50226;BME280;36113;50.742;6.432;2024-03-08T08:34:02;98424.75;;;3.11;74.82
50226;BME280;36113;50.742;6.432;2024-03-08T08:36:28;98413.19;;;3.23;74.73
50226;BME280;36113;50.742;6.432;2024-03-08T08:38:55;98397.91;;;3.23;74.64
50226;BME280;36113;50.742;6.432;2024-03-08T08:41:22;98424.75;;;3.47;74.07
50226;BME280;36113;50.742;6.432;2024-03-08T08:43:48;98415.75;;;3.53;74.11
50226;BME280;36113;50.742;6.432;2024-03-08T08:46:17;98415.28;;;3.68;73.75
50226;BME280;36113;50.742;6.432;2024-03-08T08:48:42;98410.44;;;3.82;73.23
50226;BME280;36113;50.742;6.432;2024-03-08T08:51:14;98406.56;;;3.89;72.99
50226;BME280;36113;50.742;6.432;2024-03-08T08:53:41;98411.56;;;3.98;72.72
50226;BME280;36113;50.742;6.432;2024-03-08T08:56:10;98405.16;;;3.99;72.35
50226;BME280;36113;50.742;6.432;2024-03-08T08:58:38;98405.25;;;4.04;71.82
50226;BME280;36113;50.742;6.432;2024-03-08T09:01:04;98400.06;;;4.14;72.20
50226;BME280;36113;50.742;6.432;2024-03-08T09:03:30;98402.13;;;4.24;71.94
50226;BME280;36113;50.742;6.432;2024-03-08T09:05:55;98412.38;;;4.39;72.14
50226;BME280;36113;50.742;6.432;2024-03-08T09:08:21;98393.13;;;4.47;71.61
50226;BME280;36113;50.742;6.432;2024-03-08T09:10:46;98389.69;;;4.51;70.67
50226;BME280;36113;50.742;6.432;2024-03-08T09:13:13;98395.50;;;4.60;70.23
50226;BME280;36113;50.742;6.432;2024-03-08T09:15:39;98350.41;;;4.50;70.25
50226;BME280;36113;50.742;6.432;2024-03-08T09:18:06;98377.75;;;4.76;70.30
50226;BME280;36113;50.742;6.432;2024-03-08T09:20:32;98363.03;;;4.67;69.11
50226;BME280;36113;50.742;6.432;2024-03-08T09:22:57;98375.22;;;4.69;68.83
50226;BME280;36113;50.742;6.432;2024-03-08T09:25:22;98371.06;;;4.79;69.55
50226;BME280;36113;50.742;6.432;2024-03-08T09:27:48;98340.34;;;4.63;69.00
50226;BME280;36113;50.742;6.432;2024-03-08T09:30:13;98369.09;;;4.74;68.86
50226;BME280;36113;50.742;6.432;2024-03-08T09:32:40;98365.00;;;4.71;68.44
50226;BME280;36113;50.742;6.432;2024-03-08T09:35:06;98358.56;;;4.72;68.94
50226;BME280;36113;50.742;6.432;2024-03-08T09:37:33;98359.69;;;4.93;68.45
50226;BME280;36113;50.742;6.432;2024-03-08T09:39:59;98357.97;;;5.04;68.57
50226;BME280;36113;50.742;6.432;2024-03-08T09:42:24;98348.41;;;5.13;68.28
50226;BME280;36113;50.742;6.432;2024-03-08T09:44:51;98329.75;;;5.29;68.23
50226;BME280;36113;50.742;6.432;2024-03-08T09:47:17;98341.31;;;5.46;68.11
50226;BME280;36113;50.742;6.432;2024-03-08T09:49:43;98328.03;;;5.39;67.17
50226;BME280;36113;50.742;6.432;2024-03-08T09:52:09;98327.03;;;5.46;66.75
50226;BME280;36113;50.742;6.432;2024-03-08T09:54:35;98297.25;;;5.35;66.23
50226;BME280;36113;50.742;6.432;2024-03-08T09:57:05;98324.28;;;5.63;66.32
50226;BME280;36113;50.742;6.432;2024-03-08T09:59:33;98324.19;;;5.79;66.15
50226;BME280;36113;50.742;6.432;2024-03-08T10:01:58;98319.94;;;5.84;65.90
50226;BME280;36113;50.742;6.432;2024-03-08T10:04:25;98313.72;;;5.83;65.34
50226;BME280;36113;50.742;6.432;2024-03-08T10:06:51;98312.06;;;6.04;65.27
50226;BME280;36113;50.742;6.432;2024-03-08T10:09:17;98296.53;;;6.11;64.93
50226;BME280;36113;50.742;6.432;2024-03-08T10:11:42;98295.13;;;6.36;64.69
50226;BME280;36113;50.742;6.432;2024-03-08T10:14:10;98284.78;;;6.28;63.99
50226;BME280;36113;50.742;6.432;2024-03-08T10:16:36;98297.34;;;6.44;63.85
50226;BME280;36113;50.742;6.432;2024-03-08T10:19:02;98302.25;;;6.47;62.50
50226;BME280;36113;50.742;6.432;2024-03-08T10:21:31;98304.53;;;6.66;62.87
50226;BME280;36113;50.742;6.432;2024-03-08T10:23:58;98294.97;;;6.85;62.96
50226;BME280;36113;50.742;6.432;2024-03-08T10:26:24;98287.22;;;6.99;62.20
50226;BME280;36113;50.742;6.432;2024-03-08T10:28:51;98288.56;;;7.01;60.39
50226;BME280;36113;50.742;6.432;2024-03-08T10:31:18;98277.75;;;7.01;61.41
50226;BME280;36113;50.742;6.432;2024-03-08T10:33:47;98276.16;;;7.05;60.66
50226;BME280;36113;50.742;6.432;2024-03-08T10:36:15;98268.84;;;7.01;61.29
50226;BME280;36113;50.742;6.432;2024-03-08T10:38:42;98273.19;;;7.02;60.20
50226;BME280;36113;50.742;6.432;2024-03-08T10:41:08;98272.50;;;6.79;60.02
50226;BME280;36113;50.742;6.432;2024-03-08T10:43:52;98248.78;;;6.49;60.92
50226;BME280;36113;50.742;6.432;2024-03-08T10:49:37;98249.81;;;6.80;61.52
50226;BME280;36113;50.742;6.432;2024-03-08T10:52:04;98264.94;;;7.24;61.87
50226;BME280;36113;50.742;6.432;2024-03-08T10:54:31;98251.75;;;7.48;61.78
50226;BME280;36113;50.742;6.432;2024-03-08T10:56:57;98256.59;;;7.31;59.06
50226;BME280;36113;50.742;6.432;2024-03-08T10:59:24;98238.47;;;7.31;59.84
50226;BME280;36113;50.742;6.432;2024-03-08T11:01:52;98248.47;;;7.36;58.92
50226;BME280;36113;50.742;6.432;2024-03-08T11:04:17;98246.66;;;7.52;58.82
50226;BME280;36113;50.742;6.432;2024-03-08T11:06:47;98241.28;;;7.72;57.73
50226;BME280;36113;50.742;6.432;2024-03-08T11:09:31;98231.81;;;7.75;58.44
50226;BME280;36113;50.742;6.432;2024-03-08T11:12:19;98249.47;;;7.98;57.85
50226;BME280;36113;50.742;6.432;2024-03-08T11:14:47;98230.53;;;7.93;57.32
50226;BME280;36113;50.742;6.432;2024-03-08T11:17:15;98226.47;;;7.95;57.10
50226;BME280;36113;50.742;6.432;2024-03-08T11:19:46;98232.16;;;7.88;56.19
50226;BME280;36113;50.742;6.432;2024-03-08T11:22:21;98219.97;;;7.86;56.71
50226;BME280;36113;50.742;6.432;2024-03-08T11:24:48;98227.00;;;8.07;57.32
50226;BME280;36113;50.742;6.432;2024-03-08T11:27:14;98219.19;;;8.26;57.68
50226;BME280;36113;50.742;6.432;2024-03-08T11:29:40;98204.28;;;8.34;56.42
50226;BME280;36113;50.742;6.432;2024-03-08T11:32:08;98204.03;;;8.46;55.52
50226;BME280;36113;50.742;6.432;2024-03-08T11:34:40;98208.91;;;8.49;55.57
50226;BME280;36113;50.742;6.432;2024-03-08T11:37:14;98196.41;;;8.38;54.75
50226;BME280;36113;50.742;6.432;2024-03-08T11:39:41;98207.28;;;8.33;54.68
50226;BME280;36113;50.742;6.432;2024-03-08T11:42:11;98196.47;;;8.48;56.06
50226;BME280;36113;50.742;6.432;2024-03-08T11:44:37;98193.69;;;8.63;56.01
50226;BME280;36113;50.742;6.432;2024-03-08T11:47:02;98176.94;;;8.51;53.83
50226;BME280;36113;50.742;6.432;2024-03-08T11:49:32;98199.66;;;8.76;54.88
50226;BME280;36113;50.742;6.432;2024-03-08T11:51:58;98187.72;;;8.82;55.03
50226;BME280;36113;50.742;6.432;2024-03-08T11:54:24;98160.63;;;8.72;54.35
50226;BME280;36113;50.742;6.432;2024-03-08T11:56:51;98174.41;;;8.90;53.75
50226;BME280;36113;50.742;6.432;2024-03-08T11:59:17;98159.53;;;8.78;52.84
50226;BME280;36113;50.742;6.432;2024-03-08T12:01:43;98160.34;;;8.78;53.42
50226;BME280;36113;50.742;6.432;2024-03-08T12:04:12;98160.06;;;8.85;52.92
50226;BME280;36113;50.742;6.432;2024-03-08T12:06:38;98164.38;;;8.81;53.51
50226;BME280;36113;50.742;6.432;2024-03-08T12:09:10;98170.06;;;8.95;53.40
50226;BME280;36113;50.742;6.432;2024-03-08T12:11:36;98169.16;;;9.09;54.03
50226;BME280;36113;50.742;6.432;2024-03-08T12:14:03;98144.00;;;9.04;53.43
50226;BME280;36113;50.742;6.432;2024-03-08T12:16:28;98154.53;;;9.10;52.95
50226;BME280;36113;50.742;6.432;2024-03-08T12:18:54;98158.94;;;9.01;52.36
50226;BME280;36113;50.742;6.432;2024-03-08T12:21:20;98155.91;;;9.03;53.21
50226;BME280;36113;50.742;6.432;2024-03-08T12:23:47;98156.16;;;9.17;52.98
50226;BME280;36113;50.742;6.432;2024-03-08T12:26:17;98153.13;;;9.18;52.80
50226;BME280;36113;50.742;6.432;2024-03-08T12:28:43;98134.25;;;8.98;52.83
50226;BME280;36113;50.742;6.432;2024-03-08T12:31:11;98137.81;;;8.93;52.47
50226;BME280;36113;50.742;6.432;2024-03-08T12:33:53;98133.44;;;8.92;52.44
50226;BME280;36113;50.742;6.432;2024-03-08T12:36:20;98144.00;;;8.99;52.81
50226;BME280;36113;50.742;6.432;2024-03-08T12:38:48;98122.03;;;9.00;52.38
50226;BME280;36113;50.742;6.432;2024-03-08T12:41:18;98138.44;;;9.35;53.32
50226;BME280;36113;50.742;6.432;2024-03-08T12:43:47;98118.88;;;9.38;52.10
50226;BME280;36113;50.742;6.432;2024-03-08T12:46:22;98112.06;;;9.40;51.97
50226;BME280;36113;50.742;6.432;2024-03-08T12:48:51;98120.75;;;9.42;52.43
50226;BME280;36113;50.742;6.432;2024-03-08T12:51:19;98118.59;;;9.39;51.38
50226;BME280;36113;50.742;6.432;2024-03-08T12:53:45;98121.84;;;9.41;52.31
50226;BME280;36113;50.742;6.432;2024-03-08T12:56:11;98109.84;;;9.47;51.55
50226;BME280;36113;50.742;6.432;2024-03-08T12:58:37;98099.03;;;9.42;51.17
50226;BME280;36113;50.742;6.432;2024-03-08T13:01:04;98102.03;;;9.41;50.92
50226;BME280;36113;50.742;6.432;2024-03-08T13:03:35;98103.81;;;9.56;50.35
50226;BME280;36113;50.742;6.432;2024-03-08T13:06:03;98098.97;;;9.52;50.69
50226;BME280;36113;50.742;6.432;2024-03-08T13:08:31;98082.72;;;9.47;50.00